Time;durP1;ratioP1;P1;durP2;ratioP2;P2;SDS_P1;SDS_P2;PMS_P1;PMS_P2;Temp;Humidity;BMP_temperature;BMP_pressure;BME280_temperature;BME280_humidity;BME280_pressure;Samples;Min_cycle;Max_cycle;Signal;HPM_P1;HPM_P2
2024/02/12 00:00:31;;;;;;;3.83;2.25;;;8.30;63.20;;;;;;4617811;30;20532;-83
2024/02/12 00:03:19;;;;;;;4.65;2.30;;;8.20;63.00;;;;;;4627687;30;20099;-83
2024/02/12 00:06:04;;;;;;;3.67;2.53;;;8.30;63.30;;;;;;4633049;30;20054;-82
2024/02/12 00:08:51;;;;;;;3.00;2.10;;;8.20;63.10;;;;;;4622365;30;20146;-83
2024/02/12 00:11:36;;;;;;;3.80;2.22;;;8.20;63.20;;;;;;4632192;30;20131;-83
2024/02/12 00:14:22;;;;;;;3.03;2.13;;;8.10;63.00;;;;;;4634277;30;20081;-85
2024/02/12 00:17:09;;;;;;;3.47;2.58;;;8.10;63.00;;;;;;4632459;30;20864;-84
2024/02/12 00:19:55;;;;;;;4.20;2.00;;;8.10;63.10;;;;;;4628420;30;20054;-85
2024/02/12 00:22:40;;;;;;;3.85;2.08;;;8.10;63.10;;;;;;4623512;30;20207;-85
2024/02/12 00:25:24;;;;;;;3.60;1.85;;;8.00;62.90;;;;;;4632944;30;20152;-85
2024/02/12 00:28:09;;;;;;;6.55;2.70;;;8.00;62.90;;;;;;4618408;30;20218;-84
2024/02/12 00:30:56;;;;;;;3.97;2.60;;;8.00;63.00;;;;;;4633555;30;20062;-84
2024/02/12 00:33:40;;;;;;;5.70;2.67;;;8.00;63.00;;;;;;4622670;30;20073;-83
2024/02/12 00:36:25;;;;;;;4.93;2.67;;;7.90;62.80;;;;;;4631677;30;20102;-85
2024/02/12 00:39:10;;;;;;;4.47;2.70;;;7.90;62.90;;;;;;4635306;30;20437;-85
2024/02/12 00:41:54;;;;;;;4.65;2.65;;;7.90;63.00;;;;;;4622573;30;20157;-85
2024/02/12 00:44:40;;;;;;;5.40;3.10;;;7.80;62.80;;;;;;4626095;30;20490;-85
2024/02/12 00:47:25;;;;;;;5.32;2.80;;;7.80;62.80;;;;;;4616629;30;20569;-83
2024/02/12 00:50:11;;;;;;;3.90;2.75;;;7.80;62.80;;;;;;4620824;30;20053;-83
2024/02/12 00:52:58;;;;;;;4.35;2.70;;;7.80;62.90;;;;;;4621221;30;20050;-82
2024/02/12 00:55:44;;;;;;;4.00;2.60;;;7.80;62.90;;;;;;4618609;30;20066;-82
2024/02/12 00:58:31;;;;;;;3.50;2.58;;;7.80;62.90;;;;;;4628578;30;20073;-82
2024/02/12 01:00:56;;;;;;;5.70;2.63;;;7.80;62.80;;;;;;4629102;30;20067;-82
2024/02/12 01:03:22;;;;;;;7.28;2.92;;;7.80;62.80;;;;;;4632455;30;20050;-80
2024/02/12 01:05:48;;;;;;;4.32;2.88;;;7.80;62.90;;;;;;4637513;30;20039;-81
2024/02/12 01:08:17;;;;;;;4.47;2.30;;;7.80;62.80;;;;;;4632662;30;20087;-81
2024/02/12 01:10:43;;;;;;;2.53;2.33;;;7.80;62.80;;;;;;4629404;30;20593;-82
2024/02/12 01:13:12;;;;;;;3.95;2.50;;;7.90;63.00;;;;;;4618822;30;20054;-83
2024/02/12 01:15:40;;;;;;;4.32;2.22;;;7.90;62.90;;;;;;4630122;30;20093;-82
2024/02/12 01:18:07;;;;;;;5.07;2.72;;;8.00;63.00;;;;;;4628913;30;20490;-83
2024/02/12 01:20:52;;;;;;;3.30;2.45;;;8.00;63.00;;;;;;4638095;30;20053;-83
2024/02/12 01:23:36;;;;;;;3.45;2.72;;;8.00;62.90;;;;;;4621487;30;20597;-83
2024/02/12 01:26:21;;;;;;;4.00;2.38;;;8.00;62.80;;;;;;4630791;30;20070;-83
2024/02/12 01:29:06;;;;;;;4.32;1.95;;;8.00;62.80;;;;;;4628668;30;20121;-85
2024/02/12 01:31:51;;;;;;;3.10;2.58;;;8.00;62.80;;;;;;4627836;30;20061;-83
2024/02/12 01:34:37;;;;;;;5.60;2.10;;;8.00;62.80;;;;;;4632547;30;20361;-83
2024/02/12 01:37:22;;;;;;;3.65;2.15;;;8.00;62.80;;;;;;4620613;30;20412;-84
2024/02/12 01:39:49;;;;;;;3.15;2.28;;;7.90;62.70;;;;;;4620193;30;20050;-83
2024/02/12 01:42:15;;;;;;;6.07;2.10;;;7.90;62.70;;;;;;4631648;30;20080;-84
2024/02/12 01:45:04;;;;;;;4.88;1.95;;;7.90;62.80;;;;;;4635066;30;20504;-84
2024/02/12 01:47:57;;;;;;;4.03;1.88;;;7.90;62.90;;;;;;4628830;30;20081;-80
2024/02/12 01:50:43;;;;;;;4.35;2.15;;;7.90;62.80;;;;;;4631910;30;20454;-78
2024/02/12 01:53:27;;;;;;;4.13;2.10;;;7.90;62.90;;;;;;4619620;30;20062;-80
2024/02/12 01:56:12;;;;;;;3.45;2.20;;;7.90;62.80;;;;;;4633772;30;20564;-84
2024/02/12 01:58:59;;;;;;;3.53;1.80;;;7.90;62.80;;;;;;4613589;30;20106;-84
2024/02/12 02:01:47;;;;;;;4.05;2.20;;;7.90;62.80;;;;;;4621601;30;20066;-83
2024/02/12 02:04:35;;;;;;;5.78;2.15;;;7.90;62.80;;;;;;4622518;30;20121;-83
2024/02/12 02:07:20;;;;;;;3.65;1.85;;;7.90;62.70;;;;;;4636411;30;20429;-84
2024/02/12 02:10:09;;;;;;;5.40;2.30;;;7.90;62.70;;;;;;4632533;30;20054;-81
2024/02/12 02:12:53;;;;;;;4.18;1.90;;;7.90;62.70;;;;;;4612339;30;20145;-80
2024/02/12 02:15:39;;;;;;;3.88;2.20;;;7.90;62.70;;;;;;4633385;30;20142;-81
2024/02/12 02:18:23;;;;;;;3.00;1.75;;;7.90;62.70;;;;;;4622367;30;20150;-82
2024/02/12 02:21:12;;;;;;;2.13;1.63;;;7.90;62.70;;;;;;4640222;30;20106;-83
2024/02/12 02:24:02;;;;;;;4.57;1.52;;;7.90;62.80;;;;;;4631999;30;20054;-84
2024/02/12 02:26:47;;;;;;;3.97;1.58;;;7.80;62.60;;;;;;4654485;30;20086;-83
2024/02/12 02:29:31;;;;;;;5.00;1.83;;;7.80;62.70;;;;;;4642590;30;20213;-83
2024/02/12 02:32:16;;;;;;;2.05;1.40;;;7.80;62.70;;;;;;4653541;30;20065;-82
2024/02/12 02:35:04;;;;;;;2.55;1.58;;;7.80;62.70;;;;;;4656845;30;20244;-83
2024/02/12 02:37:49;;;;;;;4.82;1.92;;;7.80;62.70;;;;;;4651556;30;20593;-83
2024/02/12 02:40:34;;;;;;;4.38;1.88;;;7.80;62.70;;;;;;4622284;30;20118;-82
2024/02/12 02:43:20;;;;;;;4.03;1.80;;;7.80;62.70;;;;;;4635782;30;20054;-83
2024/02/12 02:46:05;;;;;;;5.57;2.35;;;7.90;62.80;;;;;;4640440;30;20554;-83
2024/02/12 02:48:50;;;;;;;4.03;1.63;;;7.90;62.70;;;;;;4637235;30;20078;-83
2024/02/12 02:51:37;;;;;;;4.20;1.75;;;7.90;62.70;;;;;;4626724;30;20385;-84
2024/02/12 02:54:22;;;;;;;3.13;1.77;;;7.90;62.70;;;;;;4624096;30;20125;-83
2024/02/12 02:57:07;;;;;;;2.92;1.10;;;8.00;62.80;;;;;;4628342;30;20042;-84
2024/02/12 02:59:52;;;;;;;6.32;1.63;;;8.00;62.80;;;;;;4636641;30;20766;-86
2024/02/12 03:02:37;;;;;;;3.22;1.20;;;8.00;62.70;;;;;;4637731;30;20053;-82
2024/02/12 03:05:21;;;;;;;5.50;1.65;;;7.90;62.60;;;;;;4635841;30;20070;-83
2024/02/12 03:08:06;;;;;;;2.15;1.33;;;7.90;62.60;;;;;;4641252;30;20260;-82
2024/02/12 03:10:53;;;;;;;3.33;1.70;;;7.90;62.60;;;;;;4638366;30;20133;-82
2024/02/12 03:13:38;;;;;;;2.90;1.40;;;7.90;62.70;;;;;;4640510;30;20058;-81
2024/02/12 03:16:23;;;;;;;2.17;1.08;;;7.90;62.80;;;;;;4628966;30;20102;-85
2024/02/12 03:19:08;;;;;;;4.50;1.40;;;7.80;62.70;;;;;;4629133;30;20085;-82
2024/02/12 03:21:53;;;;;;;4.35;1.35;;;7.80;62.70;;;;;;4638908;30;20050;-83
2024/02/12 03:24:38;;;;;;;2.30;1.27;;;7.80;62.80;;;;;;4630379;30;20258;-83
2024/02/12 03:27:23;;;;;;;4.22;1.30;;;7.80;62.80;;;;;;4633774;30;20418;-82
2024/02/12 03:30:09;;;;;;;3.05;1.05;;;7.80;62.80;;;;;;4633748;30;20566;-83
2024/02/12 03:32:55;;;;;;;4.80;1.58;;;7.80;62.70;;;;;;4639393;30;20173;-83
2024/02/12 03:35:39;;;;;;;3.10;1.33;;;7.90;62.90;;;;;;4638708;30;20401;-81
2024/02/12 03:38:24;;;;;;;3.63;1.27;;;7.80;62.70;;;;;;4638899;30;20468;-82
2024/02/12 03:41:18;;;;;;;3.85;1.13;;;7.80;62.70;;;;;;4633726;30;20069;-83
2024/02/12 03:44:03;;;;;;;3.55;1.30;;;7.90;62.80;;;;;;4637869;30;20098;-82
2024/02/12 03:46:48;;;;;;;2.05;1.08;;;7.80;62.60;;;;;;4635009;30;20110;-83
2024/02/12 04:01:45;;;;;;;2.53;1.10;;;7.90;62.80;;;;;;4637993;30;20081;-81
2024/02/12 04:04:30;;;;;;;2.85;1.20;;;7.90;62.80;;;;;;4632755;30;20504;-80
2024/02/12 04:07:15;;;;;;;3.88;1.45;;;7.90;62.70;;;;;;4641159;30;20061;-83
2024/02/12 04:09:59;;;;;;;2.38;1.10;;;7.90;62.70;;;;;;4620219;30;20189;-82
2024/02/12 04:12:45;;;;;;;4.05;1.35;;;7.90;62.80;;;;;;4637886;30;20050;-84
2024/02/12 04:15:30;;;;;;;2.33;1.05;;;7.90;62.70;;;;;;4621997;30;20053;-83
2024/02/12 04:18:15;;;;;;;2.05;1.20;;;7.90;62.70;;;;;;4620642;30;20281;-82
2024/02/12 04:20:59;;;;;;;2.83;1.33;;;7.90;62.70;;;;;;4621728;30;20428;-83
2024/02/12 04:23:48;;;;;;;5.18;1.00;;;7.90;62.70;;;;;;4624545;30;20117;-82
2024/02/12 04:26:37;;;;;;;2.30;1.20;;;7.90;62.70;;;;;;4632205;30;20074;-83
2024/02/12 04:29:22;;;;;;;1.10;0.90;;;8.00;62.80;;;;;;4628078;30;20089;-83
2024/02/12 04:32:13;;;;;;;1.30;0.70;;;8.00;62.80;;;;;;4633869;30;20535;-82
2024/02/12 04:34:58;;;;;;;3.38;0.93;;;8.00;62.80;;;;;;4623082;30;20054;-83
2024/02/12 04:37:45;;;;;;;3.38;0.98;;;8.00;62.80;;;;;;4631155;30;20051;-83
2024/02/12 04:40:30;;;;;;;2.53;0.77;;;8.00;62.80;;;;;;4636618;30;20520;-84
2024/02/12 04:43:15;;;;;;;1.90;0.80;;;8.00;62.80;;;;;;4637190;30;20077;-84
2024/02/12 04:46:00;;;;;;;1.73;0.73;;;8.00;62.80;;;;;;4632656;30;20077;-83
2024/02/12 04:48:44;;;;;;;1.15;0.82;;;8.00;62.80;;;;;;4634471;30;20121;-82
2024/02/12 04:51:31;;;;;;;2.70;0.95;;;8.00;62.80;;;;;;4635133;30;20050;-83
2024/02/12 04:54:15;;;;;;;1.77;0.90;;;8.00;62.80;;;;;;4636914;30;20053;-84
2024/02/12 04:57:01;;;;;;;2.08;1.08;;;8.00;62.80;;;;;;4638087;30;20101;-84
2024/02/12 04:59:45;;;;;;;0.95;0.63;;;7.90;62.70;;;;;;4637146;30;20095;-83
2024/02/12 05:02:31;;;;;;;1.88;0.75;;;7.90;62.80;;;;;;4621562;30;20103;-83
2024/02/12 05:05:17;;;;;;;2.25;0.60;;;7.90;62.80;;;;;;4635123;30;20041;-84
2024/02/12 05:08:03;;;;;;;3.35;0.80;;;7.90;62.90;;;;;;4634535;30;20069;-82
2024/02/12 05:10:49;;;;;;;2.95;1.73;;;7.90;62.90;;;;;;4637497;30;20493;-83
2024/02/12 05:13:35;;;;;;;1.55;0.63;;;7.80;62.70;;;;;;4635685;30;20089;-83
2024/02/12 05:16:29;;;;;;;4.28;0.90;;;7.80;62.80;;;;;;4624799;30;20050;-83
2024/02/12 05:22:35;;;;;;;0.77;0.63;;;7.80;62.80;;;;;;4642089;30;20133;-83
2024/02/12 05:25:19;;;;;;;0.93;0.77;;;7.70;62.70;;;;;;4636447;30;20253;-86
2024/02/12 05:28:05;;;;;;;1.67;0.95;;;7.70;62.80;;;;;;4642362;30;20066;-86
2024/02/12 05:30:49;;;;;;;1.90;0.93;;;7.70;62.90;;;;;;4637228;30;20141;-84
2024/02/12 05:33:36;;;;;;;2.70;0.85;;;7.60;62.80;;;;;;4641243;30;20065;-83
2024/02/12 05:36:20;;;;;;;1.73;0.57;;;7.60;63.40;;;;;;4634886;30;20151;-83
2024/02/12 05:39:04;;;;;;;2.30;0.77;;;7.50;62.80;;;;;;4643525;30;20058;-82
2024/02/12 05:41:49;;;;;;;1.35;0.50;;;7.50;62.80;;;;;;4629869;30;20134;-86
2024/02/12 05:44:37;;;;;;;1.25;0.60;;;7.50;62.90;;;;;;4622112;30;20054;-85
2024/02/12 05:47:22;;;;;;;1.98;0.52;;;7.40;62.70;;;;;;4620150;30;20103;-86
2024/02/12 05:50:07;;;;;;;1.85;0.57;;;7.40;62.80;;;;;;4637136;30;20045;-87
2024/02/12 05:52:52;;;;;;;1.75;0.60;;;7.30;62.60;;;;;;4642253;30;20621;-86
2024/02/12 05:55:39;;;;;;;1.08;0.50;;;7.30;62.70;;;;;;4622665;30;20046;-82
2024/02/12 05:58:26;;;;;;;1.73;0.65;;;7.20;62.80;;;;;;4624673;30;20064;-82
2024/02/12 06:01:12;;;;;;;0.50;0.40;;;7.20;62.60;;;;;;4619502;30;20394;-80
2024/02/12 06:03:58;;;;;;;1.52;0.73;;;7.10;62.60;;;;;;4622420;30;20121;-81
2024/02/12 06:06:43;;;;;;;1.08;0.60;;;7.00;62.40;;;;;;4634484;30;20137;-83
2024/02/12 06:09:28;;;;;;;1.65;0.70;;;7.00;62.50;;;;;;4638752;30;20456;-84
2024/02/12 06:12:13;;;;;;;0.75;0.50;;;7.00;62.50;;;;;;4621794;30;20366;-83
2024/02/12 06:14:58;;;;;;;1.88;0.90;;;6.90;62.40;;;;;;4641167;30;20077;-84
2024/02/12 06:17:42;;;;;;;1.00;0.50;;;6.80;62.30;;;;;;4639408;30;20665;-83
2024/02/12 06:20:27;;;;;;;0.75;0.63;;;6.80;62.30;;;;;;4646666;30;20395;-88
2024/02/12 06:23:13;;;;;;;0.98;0.70;;;6.80;62.40;;;;;;4634105;30;20429;-87
2024/02/12 06:25:58;;;;;;;0.77;0.50;;;6.70;62.30;;;;;;4630692;30;20057;-88
2024/02/12 06:28:43;;;;;;;2.63;0.68;;;6.70;62.30;;;;;;4622382;30;20219;-91
2024/02/12 06:31:27;;;;;;;1.08;0.60;;;6.70;62.30;;;;;;4630627;30;20370;-79
2024/02/12 06:34:12;;;;;;;0.73;0.68;;;6.60;62.20;;;;;;4638655;30;20137;-81
2024/02/12 06:36:57;;;;;;;1.50;0.70;;;6.60;62.30;;;;;;4641224;30;20069;-82
2024/02/12 06:39:42;;;;;;;2.25;0.65;;;6.50;62.20;;;;;;4633460;30;20093;-83
2024/02/12 06:42:27;;;;;;;1.02;0.88;;;6.50;62.50;;;;;;4635402;30;20128;-81
2024/02/12 06:45:13;;;;;;;1.52;0.77;;;6.60;62.90;;;;;;4645347;30;20083;-82
2024/02/12 06:47:58;;;;;;;0.80;0.77;;;6.70;63.10;;;;;;4648761;30;20087;-83
2024/02/12 06:50:42;;;;;;;0.90;0.82;;;6.70;63.20;;;;;;4648569;30;20332;-81
2024/02/12 06:53:27;;;;;;;5.43;1.00;;;6.70;63.20;;;;;;4639063;30;20138;-81
2024/02/12 06:56:12;;;;;;;22.00;5.25;;;6.70;63.30;;;;;;4650184;30;20584;-81
2024/02/12 06:58:57;;;;;;;28.55;7.88;;;6.70;63.30;;;;;;4647568;30;20112;-84
2024/02/12 07:01:42;;;;;;;38.70;8.80;;;6.80;63.60;;;;;;4640098;30;20053;-82
2024/02/12 07:04:26;;;;;;;32.22;7.68;;;6.80;63.70;;;;;;4652133;30;20053;-79
2024/02/12 07:07:11;;;;;;;28.60;6.57;;;6.80;63.90;;;;;;4648751;30;20098;-81
2024/02/12 07:09:59;;;;;;;22.30;5.07;;;6.80;64.00;;;;;;4650859;30;20085;-81
2024/02/12 07:12:46;;;;;;;17.00;4.22;;;6.80;64.20;;;;;;4637069;30;20102;-80
2024/02/12 07:15:31;;;;;;;17.83;5.10;;;6.80;64.30;;;;;;4642765;30;20058;-83
2024/02/12 07:18:16;;;;;;;13.05;3.50;;;6.90;64.50;;;;;;4629447;30;20094;-80
2024/02/12 07:21:01;;;;;;;17.20;4.43;;;6.90;64.90;;;;;;4644077;30;20057;-80
2024/02/12 07:23:47;;;;;;;12.07;4.57;;;7.00;65.10;;;;;;4643932;30;20111;-79
2024/02/12 07:26:32;;;;;;;9.38;3.50;;;7.10;65.30;;;;;;4642952;30;20150;-76
2024/02/12 07:29:16;;;;;;;10.57;3.63;;;7.10;65.40;;;;;;4649534;30;20689;-82
2024/02/12 07:32:05;;;;;;;7.03;3.35;;;7.10;66.20;;;;;;4626449;30;20062;-82
2024/02/12 07:34:50;;;;;;;8.77;3.35;;;7.10;65.90;;;;;;4625907;30;20061;-80
2024/02/12 07:37:38;;;;;;;8.35;3.25;;;7.20;66.00;;;;;;4631980;30;20061;-77
2024/02/12 07:40:22;;;;;;;16.05;3.83;;;7.20;66.10;;;;;;4618584;30;20575;-79
2024/02/12 07:43:07;;;;;;;5.95;3.13;;;7.20;66.10;;;;;;4636569;30;20050;-79
2024/02/12 07:45:53;;;;;;;7.70;3.17;;;7.10;66.20;;;;;;4621883;30;20078;-78
2024/02/12 07:48:40;;;;;;;4.82;2.40;;;7.00;66.10;;;;;;4640124;30;20065;-79
2024/02/12 07:51:26;;;;;;;6.10;2.72;;;7.00;66.20;;;;;;4643338;30;20052;-78
2024/02/12 07:54:11;;;;;;;5.80;3.30;;;6.90;66.20;;;;;;4644661;30;20141;-80
2024/02/12 07:56:56;;;;;;;4.90;2.90;;;6.80;66.00;;;;;;4630363;30;20122;-79
2024/02/12 07:59:41;;;;;;;4.60;3.45;;;6.80;66.10;;;;;;4634894;30;20471;-79
2024/02/12 08:02:26;;;;;;;5.90;3.25;;;6.70;66.00;;;;;;4627810;30;20101;-79
2024/02/12 08:05:12;;;;;;;5.22;3.03;;;6.70;66.00;;;;;;4621147;30;20129;-79
2024/02/12 08:07:56;;;;;;;5.03;3.28;;;6.70;66.10;;;;;;4632925;30;20571;-78
2024/02/12 08:10:41;;;;;;;5.53;3.03;;;6.60;66.00;;;;;;4632396;30;20121;-80
2024/02/12 08:13:26;;;;;;;5.07;3.30;;;6.60;66.00;;;;;;4620093;30;20342;-79
2024/02/12 08:16:11;;;;;;;3.90;2.60;;;6.60;66.00;;;;;;4627494;30;20846;-79
2024/02/12 08:18:56;;;;;;;4.88;3.03;;;6.50;65.80;;;;;;4624247;30;20138;-79
2024/02/12 08:21:40;;;;;;;3.65;2.78;;;6.50;65.80;;;;;;4632545;30;20096;-79
2024/02/12 08:24:25;;;;;;;3.83;2.88;;;6.50;65.80;;;;;;4634183;30;20603;-80
2024/02/12 08:27:10;;;;;;;3.67;2.97;;;6.50;65.70;;;;;;4619032;30;20546;-80
2024/02/12 08:29:55;;;;;;;4.45;2.70;;;6.50;65.70;;;;;;4639281;30;20459;-79
2024/02/12 08:32:40;;;;;;;4.20;2.92;;;6.50;65.70;;;;;;4624200;30;20721;-79
2024/02/12 08:35:24;;;;;;;3.30;2.63;;;6.50;65.70;;;;;;4635784;30;20147;-76
2024/02/12 08:38:09;;;;;;;5.25;3.15;;;6.40;65.50;;;;;;4636221;30;20050;-78
2024/02/12 08:40:55;;;;;;;4.40;3.28;;;6.50;65.70;;;;;;4632966;30;20120;-78
2024/02/12 08:43:40;;;;;;;4.63;3.10;;;6.40;65.40;;;;;;4633857;30;20107;-78
2024/02/12 08:46:24;;;;;;;4.45;2.95;;;6.40;65.40;;;;;;4626027;30;20065;-78
2024/02/12 08:49:09;;;;;;;4.88;3.15;;;6.40;65.40;;;;;;4633554;30;20062;-80
2024/02/12 08:51:54;;;;;;;3.78;3.28;;;6.50;65.50;;;;;;4637117;30;20209;-77
2024/02/12 08:54:38;;;;;;;4.85;3.30;;;6.40;65.30;;;;;;4633417;30;20113;-77
2024/02/12 08:57:23;;;;;;;4.95;3.47;;;6.50;65.40;;;;;;4638990;30;20102;-79
2024/02/12 09:00:13;;;;;;;5.13;3.85;;;6.40;65.20;;;;;;4641162;30;20354;-78
2024/02/12 09:02:58;;;;;;;5.10;3.20;;;6.50;65.40;;;;;;4640482;30;20125;-78
2024/02/12 09:05:42;;;;;;;5.05;3.70;;;6.50;65.50;;;;;;4645333;30;20114;-77
2024/02/12 09:08:27;;;;;;;5.88;3.42;;;6.50;65.40;;;;;;4636133;30;20586;-79
2024/02/12 09:11:12;;;;;;;4.40;3.97;;;6.50;65.40;;;;;;4653699;30;20058;-78
2024/02/12 09:13:57;;;;;;;4.78;3.85;;;6.50;65.40;;;;;;4635958;30;20121;-78
2024/02/12 09:16:42;;;;;;;3.88;2.75;;;6.60;65.50;;;;;;4653104;30;20125;-79
2024/02/12 09:19:26;;;;;;;4.70;2.90;;;6.60;65.40;;;;;;4647173;30;20589;-78
2024/02/12 09:22:11;;;;;;;3.97;2.95;;;6.70;65.50;;;;;;4635473;30;20205;-77
2024/02/12 09:24:56;;;;;;;4.72;3.42;;;6.70;65.50;;;;;;4642974;30;20050;-78
2024/02/12 09:27:45;;;;;;;4.47;2.80;;;6.70;65.40;;;;;;4640954;30;20152;-78
2024/02/12 09:30:30;;;;;;;5.07;3.22;;;6.70;65.40;;;;;;4643071;30;20119;-77
2024/02/12 09:33:16;;;;;;;5.50;3.00;;;6.70;65.40;;;;;;4633658;30;20512;-78
2024/02/12 09:36:00;;;;;;;4.75;4.03;;;6.70;65.40;;;;;;4649898;30;20133;-78
2024/02/12 09:38:45;;;;;;;4.60;2.90;;;6.80;65.50;;;;;;4638259;30;20555;-77
2024/02/12 09:41:33;;;;;;;5.30;2.42;;;6.80;65.50;;;;;;4642318;30;20084;-78
2024/02/12 09:44:22;;;;;;;3.40;2.50;;;6.80;65.50;;;;;;4634924;30;20057;-78
2024/02/12 09:47:10;;;;;;;3.25;2.78;;;6.80;65.40;;;;;;4622715;30;20558;-78
2024/02/12 09:49:55;;;;;;;2.97;2.15;;;6.90;65.60;;;;;;4629027;30;20077;-83
2024/02/12 09:52:41;;;;;;;3.80;2.33;;;6.90;65.50;;;;;;4622879;30;20081;-77
2024/02/12 09:55:26;;;;;;;5.30;2.70;;;6.90;65.50;;;;;;4624546;30;20512;-82
2024/02/12 09:58:11;;;;;;;6.47;2.50;;;7.00;65.70;;;;;;4623842;30;20065;-80
2024/02/12 10:00:55;;;;;;;3.38;1.92;;;7.00;65.70;;;;;;4641784;30;20541;-79
2024/02/12 10:03:43;;;;;;;4.60;1.83;;;7.10;65.90;;;;;;4624831;30;20087;-80
2024/02/12 10:06:28;;;;;;;3.70;1.75;;;7.20;66.20;;;;;;4635872;30;20042;-79
2024/02/12 10:09:13;;;;;;;4.53;1.80;;;7.30;66.40;;;;;;4623587;30;20150;-79
2024/02/12 10:12:07;;;;;;;2.25;1.17;;;7.40;66.50;;;;;;4623045;30;20716;-79
2024/02/12 10:14:53;;;;;;;3.55;1.58;;;7.50;66.70;;;;;;4635239;30;20082;-80
2024/02/12 10:17:38;;;;;;;2.22;1.48;;;7.70;66.90;;;;;;4621618;30;20256;-80
2024/02/12 10:20:23;;;;;;;28.98;2.25;;;7.80;67.10;;;;;;4637102;30;20069;-78
2024/02/12 10:23:10;;;;;;;5.43;1.60;;;7.90;67.30;;;;;;4637794;30;20888;-81
2024/02/12 10:25:56;;;;;;;4.35;1.40;;;8.00;67.50;;;;;;4624629;30;20053;-80
2024/02/12 10:28:41;;;;;;;5.85;1.38;;;8.10;67.70;;;;;;4636404;30;20492;-83
2024/02/12 10:31:26;;;;;;;3.08;1.35;;;8.30;68.50;;;;;;4624173;30;20061;-83
2024/02/12 10:34:11;;;;;;;3.13;1.27;;;8.70;69.30;;;;;;4609136;30;20102;-83
2024/02/12 10:36:57;;;;;;;2.35;1.10;;;9.00;69.50;;;;;;4632736;30;20591;-82
2024/02/12 10:39:45;;;;;;;4.28;1.10;;;9.50;70.00;;;;;;4621215;30;20061;-83
2024/02/12 10:42:35;;;;;;;5.68;1.58;;;9.80;70.00;;;;;;4636683;30;20081;-81
2024/02/12 10:45:20;;;;;;;4.32;1.48;;;10.10;70.00;;;;;;4636195;30;20527;-81
2024/02/12 10:48:07;;;;;;;3.47;1.50;;;10.50;70.20;;;;;;4628293;30;20061;-82
2024/02/12 10:50:57;;;;;;;5.95;1.80;;;10.80;70.20;;;;;;4620645;30;20129;-82
2024/02/12 10:53:41;;;;;;;5.03;1.85;;;11.10;70.30;;;;;;4635725;30;20149;-81
2024/02/12 10:56:26;;;;;;;4.55;2.20;;;11.30;70.20;;;;;;4618852;30;20081;-82
2024/02/12 10:59:14;;;;;;;2.47;2.13;;;11.60;70.60;;;;;;4635360;30;20109;-82
2024/02/12 11:02:08;;;;;;;5.15;1.80;;;11.80;70.30;;;;;;4623270;30;20164;-80
2024/02/12 11:05:00;;;;;;;;;;;12.00;70.30;;;;;;4631129;30;20077;-82
2024/02/12 11:07:45;;;;;;;3.47;2.13;;;12.20;70.20;;;;;;4633006;30;19997;-81
2024/02/12 11:10:34;;;;;;;3.45;1.65;;;12.40;70.50;;;;;;4632410;30;20416;-80
2024/02/12 11:13:20;;;;;;;2.60;1.65;;;12.50;70.00;;;;;;4636995;30;20851;-81
2024/02/12 11:16:06;;;;;;;4.32;1.95;;;12.70;70.10;;;;;;4640930;30;20129;-82
2024/02/12 11:18:57;;;;;;;3.92;2.05;;;12.80;70.00;;;;;;4625280;30;20222;-82
2024/02/12 11:21:44;;;;;;;5.75;1.73;;;13.00;70.20;;;;;;4630024;30;20109;-81
2024/02/12 11:24:37;;;;;;;3.72;1.60;;;13.10;70.10;;;;;;4620581;30;20188;-81
2024/02/12 11:27:21;;;;;;;3.65;1.95;;;13.20;70.10;;;;;;4638399;30;20125;-84
2024/02/12 11:30:10;;;;;;;2.92;1.30;;;13.30;70.00;;;;;;4634198;30;20085;-85
2024/02/12 11:32:59;;;;;;;3.58;1.33;;;13.40;70.00;;;;;;4637235;30;20536;-82
2024/02/12 11:35:43;;;;;;;5.05;2.00;;;13.50;69.90;;;;;;4623256;30;20070;-85
2024/02/12 11:38:29;;;;;;;2.22;1.23;;;13.60;69.80;;;;;;4635864;30;20102;-84
2024/02/12 11:41:15;;;;;;;2.67;1.00;;;13.70;69.80;;;;;;4621597;30;20110;-83
2024/02/12 11:44:06;;;;;;;4.32;1.00;;;13.80;69.70;;;;;;4627265;30;20054;-85
2024/02/12 11:46:59;;;;;;;2.53;0.85;;;13.90;69.70;;;;;;4637329;30;20086;-84
2024/02/12 11:49:45;;;;;;;1.98;0.88;;;14.00;69.50;;;;;;4620132;30;20135;-86
2024/02/12 11:52:32;;;;;;;2.58;0.90;;;14.10;69.50;;;;;;4642253;30;20109;-83
2024/02/12 11:55:18;;;;;;;3.78;1.17;;;14.10;69.30;;;;;;4624637;30;20433;-83
2024/02/12 11:58:03;;;;;;;1.83;0.90;;;14.20;69.30;;;;;;4631108;30;20113;-84
2024/02/12 12:00:48;;;;;;;1.25;0.82;;;14.30;69.20;;;;;;4624417;30;20050;-80
2024/02/12 12:03:32;;;;;;;2.17;1.00;;;14.40;69.10;;;;;;4638947;30;20085;-83
2024/02/12 12:06:18;;;;;;;2.40;0.85;;;14.50;69.10;;;;;;4632806;30;20069;-82
2024/02/12 12:09:05;;;;;;;3.13;1.33;;;14.50;68.80;;;;;;4638223;30;20121;-81
2024/02/12 12:11:50;;;;;;;3.15;0.77;;;14.60;68.70;;;;;;4617663;30;20131;-83
2024/02/12 12:14:37;;;;;;;1.35;1.10;;;14.70;68.70;;;;;;4622182;30;20065;-81
2024/02/12 12:17:21;;;;;;;3.22;0.85;;;14.70;68.50;;;;;;4632018;30;20342;-82
2024/02/12 12:20:12;;;;;;;5.03;1.48;;;14.80;68.50;;;;;;4628773;30;20477;-82
2024/02/12 12:22:57;;;;;;;10.00;2.20;;;14.80;68.20;;;;;;4619654;30;20161;-82
2024/02/12 12:25:42;;;;;;;3.22;1.05;;;14.90;68.20;;;;;;4615704;30;20049;-83
2024/02/12 12:28:26;;;;;;;3.90;0.98;;;15.00;68.10;;;;;;4619580;30;20065;-82
2024/02/12 12:31:11;;;;;;;3.10;0.88;;;15.10;68.00;;;;;;4622358;30;20126;-81
2024/02/12 12:33:57;;;;;;;2.65;0.65;;;15.10;67.80;;;;;;4623138;30;20126;-82
2024/02/12 12:36:41;;;;;;;2.17;0.70;;;15.20;67.70;;;;;;4621502;30;20065;-82
2024/02/12 12:39:26;;;;;;;1.70;0.80;;;15.20;67.50;;;;;;4623227;30;20325;-82
2024/02/12 12:42:11;;;;;;;3.15;1.30;;;15.30;67.50;;;;;;4632968;30;20053;-81
2024/02/12 12:44:57;;;;;;;1.95;0.80;;;15.30;67.20;;;;;;4633051;30;20113;-81
2024/02/12 12:47:43;;;;;;;1.20;0.50;;;15.40;67.10;;;;;;4611813;30;20082;-82
2024/02/12 12:50:28;;;;;;;2.03;0.73;;;15.40;66.80;;;;;;4612410;30;20522;-83
2024/02/12 12:53:12;;;;;;;3.55;0.70;;;15.50;66.80;;;;;;4617692;30;20421;-81
2024/02/12 12:55:57;;;;;;;2.00;0.70;;;15.50;66.60;;;;;;4616524;30;20452;-82
2024/02/12 12:58:42;;;;;;;1.30;0.50;;;15.60;66.50;;;;;;4633961;30;20069;-82
2024/02/12 13:01:27;;;;;;;1.15;0.60;;;15.60;66.20;;;;;;4619550;30;20145;-82
2024/02/12 13:04:12;;;;;;;1.65;0.60;;;15.70;66.20;;;;;;4621013;30;20101;-82
2024/02/12 13:06:57;;;;;;;2.25;0.63;;;15.70;65.90;;;;;;4631534;30;20550;-83
2024/02/12 13:09:42;;;;;;;3.17;0.93;;;15.80;65.90;;;;;;4621062;30;20515;-81
2024/02/12 13:12:30;;;;;;;1.40;0.70;;;15.80;65.60;;;;;;4623991;30;20050;-84
2024/02/12 13:15:15;;;;;;;2.65;0.70;;;15.90;65.60;;;;;;4641143;30;20574;-83
2024/02/12 13:17:59;;;;;;;3.63;0.93;;;16.00;65.50;;;;;;4624789;30;20097;-84
2024/02/12 13:20:44;;;;;;;2.40;0.50;;;16.00;65.20;;;;;;4627208;30;20319;-86
2024/02/12 13:23:28;;;;;;;2.38;0.55;;;16.10;65.10;;;;;;4623653;30;20053;-85
2024/02/12 13:26:14;;;;;;;3.20;1.17;;;16.10;64.90;;;;;;4637298;30;20284;-85
2024/02/12 13:28:58;;;;;;;1.35;0.68;;;16.20;64.80;;;;;;4634149;30;20488;-84
2024/02/12 13:31:43;;;;;;;1.38;0.68;;;16.20;64.50;;;;;;4630201;30;20437;-81
2024/02/12 13:34:31;;;;;;;2.67;0.98;;;16.30;64.50;;;;;;4622664;30;20362;-81
2024/02/12 13:37:15;;;;;;;4.32;0.80;;;16.30;64.30;;;;;;4637637;30;20250;-82
2024/02/12 13:40:05;;;;;;;3.95;0.63;;;16.30;64.20;;;;;;4635836;30;20389;-82
2024/02/12 13:42:49;;;;;;;1.92;0.60;;;16.30;64.10;;;;;;4621822;30;20114;-81
2024/02/12 13:45:36;;;;;;;3.00;1.15;;;16.30;64.10;;;;;;4624140;30;20105;-89
2024/02/12 13:48:22;;;;;;;1.70;0.77;;;16.40;63.90;;;;;;4626451;30;20058;-89
2024/02/12 13:51:08;;;;;;;2.47;0.50;;;16.40;63.70;;;;;;4640281;30;20134;-87
2024/02/12 13:53:53;;;;;;;2.35;0.60;;;16.40;63.50;;;;;;4638355;30;20076;-87
2024/02/12 13:56:37;;;;;;;4.05;0.70;;;16.50;63.50;;;;;;4625740;30;20182;-86
2024/02/12 13:59:22;;;;;;;2.17;0.50;;;16.50;63.20;;;;;;4644178;30;20169;-85
2024/02/12 14:02:09;;;;;;;2.33;0.55;;;16.50;63.10;;;;;;4642700;30;20069;-89
2024/02/12 14:04:53;;;;;;;2.67;0.52;;;16.60;63.00;;;;;;4618870;30;20254;-87
2024/02/12 14:07:38;;;;;;;1.27;0.40;;;16.60;62.80;;;;;;4624977;30;20527;-88
2024/02/12 14:10:27;;;;;;;1.60;0.68;;;16.60;62.60;;;;;;4639486;30;20073;-88
2024/02/12 14:13:12;;;;;;;1.00;0.47;;;16.70;62.70;;;;;;4636659;30;20551;-86
2024/02/12 14:15:59;;;;;;;1.50;0.40;;;16.60;62.40;;;;;;4634281;30;20057;-85
2024/02/12 14:18:44;;;;;;;2.15;0.73;;;16.70;62.40;;;;;;4612929;30;20069;-87
2024/02/12 14:21:30;;;;;;;3.00;1.40;;;16.70;62.30;;;;;;4638021;30;20045;-88
2024/02/12 14:24:15;;;;;;;0.88;0.60;;;16.70;62.10;;;;;;4639216;30;20050;-87
2024/02/12 14:27:00;;;;;;;2.13;0.82;;;16.60;61.80;;;;;;4638146;30;20457;-85
2024/02/12 14:29:44;;;;;;;1.83;0.45;;;16.70;61.70;;;;;;4635960;30;20157;-84
2024/02/12 14:32:30;;;;;;;1.90;0.50;;;16.80;61.70;;;;;;4621979;30;20066;-84
2024/02/12 14:35:18;;;;;;;1.10;0.52;;;16.80;61.50;;;;;;4622655;30;20077;-85
2024/02/12 14:38:03;;;;;;;1.27;0.50;;;16.80;61.30;;;;;;4617738;30;20094;-83
2024/02/12 14:40:49;;;;;;;2.45;0.50;;;16.80;61.30;;;;;;4640145;30;20049;-85